Abbotsford Airport
CYXX : now visible

Airfield :











YOU CAN JOIN US ON...

 
LOGIN :

Register | Disclaimer

   EN    FR    IT 

 









Legend :    VFR   Marginal VFR   IFR   Intensive IFR   Very Intensive IFR
Visi :
Ceiling :
>= 8 km
>= 3000ft
5 to 8 km
1000 to 3000 ft
1500m to 5 km
500 to 1000 ft
800 to 1500m
200 to 500 ft
< 800m
< 200 ft
Symbols :   Thunderstorms  Fog  Heavy snow  Heavy precipitations  Wind > 20 kt






- Airport Elevation : 195 ft
- IATA code : YXX


CYXX - Abbotsford

CURRENT METAR :
  • 261800Z 22007KT 10SM SCT023 BKN054 BKN074 15/10 A3016 RMK CU3CU2AC2 SLP214

EXPIRED METARs :
  • 261700Z 24010KT 9SM FEW015 SCT023 BKN051 BKN074 14/09 A3015 RMK CU2CU2SC2AC1 SLP212
  • 261600Z 19009KT 7SM SCT009 BKN015 OVC030 OVC072 13/10 A3014 RMK CU4CU2SC2AC1 AC TR SLP210

TAF TAF CYXX
Valid from the 26 at 18:00 until the 27 at 18:00 UTC


261738Z 2618/2718 24008KT P6SM SCT020 BKN050
TEMPO 2618/2621 BKN020
FM262300 23008KT P6SM FEW050
BECMG 2703/2705 VRB03KT
FM270900 VRB03KT P6SM SCT020
TEMPO 2709/2715 BKN020
FM271700 23008KT P6SM FEW050 RMK NXT FCST BY 270000Z
CZVR FIR / North America



MET'MAP, your aeronautical weather chart ! - Copyright ORBIFLY December 2007 - Disclaimer

ORBIFLY MET'MAP TEAM :

Programming & Development : Alexandra Zaïnal
Concept & original design : Baudouin d'Aumeries
Assistance for programming : Marc-Olivier Méhu
Technical & hardware support : Manuel Goepfert

Contact : metmap@orbifly.com




SOURCES & CREDITS :

   NOAA       Earth
Advisory